Time;durP1;ratioP1;P1;durP2;ratioP2;P2;SDS_P1;SDS_P2;PMS_P1;PMS_P2;Temp;Humidity;BMP_temperature;BMP_pressure;BME280_temperature;BME280_humidity;BME280_pressure;Samples;Min_cycle;Max_cycle;Signal;HPM_P1;HPM_P2
2024/03/19 00:00:19;;;;;;;24.45;10.77;;;;;;;8.76;100.00;101435.03;5026929;28;20036;-77
2024/03/19 00:02:46;;;;;;;18.05;10.45;;;;;;;8.76;100.00;101440.22;5024728;28;20044;-76
2024/03/19 00:05:12;;;;;;;27.13;10.48;;;;;;;8.77;100.00;101437.47;5020358;28;20074;-77
2024/03/19 00:07:37;;;;;;;22.50;11.43;;;;;;;8.80;100.00;101439.00;5027371;28;20041;-76
2024/03/19 00:10:03;;;;;;;18.85;10.00;;;;;;;8.77;100.00;101442.66;5028605;28;20415;-76
2024/03/19 00:12:32;;;;;;;21.83;10.45;;;;;;;8.81;100.00;101437.22;5028160;28;20061;-76
2024/03/19 00:14:59;;;;;;;25.95;11.20;;;;;;;8.80;100.00;101431.25;5031008;28;20148;-76
2024/03/19 00:17:24;;;;;;;23.50;11.10;;;;;;;8.82;100.00;101436.31;5027760;28;20056;-76
2024/03/19 00:19:50;;;;;;;21.58;10.75;;;;;;;8.85;100.00;101442.00;5026081;28;21524;-76
2024/03/19 00:22:15;;;;;;;17.58;10.23;;;;;;;8.88;100.00;101438.34;5025984;28;20038;-76
2024/03/19 00:24:43;;;;;;;22.50;11.48;;;;;;;8.87;100.00;101434.13;5026783;28;20029;-77
2024/03/19 00:27:09;;;;;;;15.77;9.60;;;;;;;8.87;100.00;101442.72;5024232;28;20033;-77
2024/03/19 00:29:35;;;;;;;16.55;9.45;;;;;;;8.89;100.00;101445.16;5026497;28;20037;-77
2024/03/19 00:32:00;;;;;;;24.98;10.77;;;;;;;8.90;100.00;101446.81;5026836;28;20044;-76
2024/03/19 00:34:26;;;;;;;22.75;10.75;;;;;;;8.88;100.00;101441.75;5027101;28;20431;-76
2024/03/19 00:36:52;;;;;;;20.90;10.73;;;;;;;8.88;100.00;101444.34;5022531;28;20099;-75
2024/03/19 00:39:21;;;;;;;21.77;10.85;;;;;;;8.88;100.00;101444.34;5027641;28;20596;-76
2024/03/19 00:41:48;;;;;;;23.88;10.00;;;;;;;8.87;100.00;101441.88;5037975;28;20037;-76
2024/03/19 00:44:13;;;;;;;20.15;10.00;;;;;;;8.85;100.00;101444.59;5023029;28;20500;-77
2024/03/19 00:46:39;;;;;;;22.27;9.88;;;;;;;8.84;100.00;101442.97;5008273;28;20079;-76
2024/03/19 00:49:05;;;;;;;20.67;9.77;;;;;;;8.83;100.00;101443.09;5025435;28;20037;-77
2024/03/19 00:51:31;;;;;;;23.00;9.98;;;;;;;8.82;100.00;101433.72;5013456;28;20041;-77
2024/03/19 00:53:57;;;;;;;19.63;10.10;;;;;;;8.80;100.00;101430.41;5010574;28;20037;-76
2024/03/19 00:56:22;;;;;;;21.73;9.85;;;;;;;8.76;100.00;101435.84;5024950;28;20541;-76
2024/03/19 00:58:48;;;;;;;17.48;9.82;;;;;;;8.76;100.00;101437.63;5026361;28;20033;-76
2024/03/19 01:01:13;;;;;;;23.33;9.55;;;;;;;8.74;100.00;101434.34;5024117;28;21889;-76
2024/03/19 01:03:39;;;;;;;20.60;10.23;;;;;;;8.73;100.00;101443.06;5056724;28;20045;-76
2024/03/19 01:06:04;;;;;;;27.98;9.95;;;;;;;8.70;100.00;101430.38;5024921;28;20026;-77
2024/03/19 01:08:30;;;;;;;19.00;9.52;;;;;;;8.69;100.00;101437.31;5022536;28;20033;-77
2024/03/19 01:11:00;;;;;;;16.83;9.32;;;;;;;8.66;100.00;101427.22;5026968;28;20103;-77
2024/03/19 01:13:26;;;;;;;22.35;9.93;;;;;;;8.65;100.00;101417.84;5024273;28;20029;-77
2024/03/19 01:15:51;;;;;;;18.00;9.80;;;;;;;8.64;100.00;101421.34;5025310;28;21922;-76
2024/03/19 01:18:17;;;;;;;25.08;9.85;;;;;;;8.64;100.00;101423.13;5017166;28;20099;-76
2024/03/19 01:20:42;;;;;;;18.17;9.60;;;;;;;8.56;100.00;101418.59;5021779;28;20029;-76
2024/03/19 01:23:08;;;;;;;24.92;9.23;;;;;;;8.53;100.00;101418.84;5018659;28;20040;-76
2024/03/19 01:25:33;;;;;;;17.88;9.02;;;;;;;8.49;100.00;101418.28;5019185;28;20037;-76
2024/03/19 01:27:59;;;;;;;19.92;9.35;;;;;;;8.49;100.00;101417.47;5021676;28;20041;-76
2024/03/19 01:30:25;;;;;;;19.23;8.82;;;;;;;8.48;100.00;101413.25;5024465;28;20033;-76
2024/03/19 01:32:50;;;;;;;17.73;9.70;;;;;;;8.46;100.00;101412.56;5020912;28;20045;-76
2024/03/19 01:35:15;;;;;;;17.05;8.63;;;;;;;8.43;100.00;101403.28;5022445;28;20026;-76
2024/03/19 01:37:41;;;;;;;14.68;8.55;;;;;;;8.42;100.00;101398.22;5022561;28;20441;-77
2024/03/19 01:40:07;;;;;;;18.40;8.55;;;;;;;8.36;100.00;101396.94;5021954;28;20675;-76
2024/03/19 01:42:33;;;;;;;15.75;9.00;;;;;;;8.27;100.00;101389.94;5022369;28;20048;-76
2024/03/19 01:45:13;;;;;;;13.73;8.00;;;;;;;8.21;100.00;101393.84;5025381;28;20025;-76
2024/03/19 01:47:39;;;;;;;19.15;8.95;;;;;;;8.17;100.00;101390.75;5042731;28;20084;-77
2024/03/19 01:50:10;;;;;;;24.30;8.73;;;;;;;8.10;100.00;101379.25;5009653;28;20121;-76
2024/03/19 01:52:41;;;;;;;21.02;8.93;;;;;;;8.03;100.00;101390.22;5023846;28;20060;-77
2024/03/19 01:55:07;;;;;;;17.25;9.00;;;;;;;7.98;100.00;101393.97;5038957;28;21664;-76
2024/03/19 01:57:33;;;;;;;18.67;9.10;;;;;;;7.98;100.00;101393.97;5027263;28;20061;-77
2024/03/19 01:59:59;;;;;;;18.50;8.35;;;;;;;7.97;100.00;101392.34;5025931;28;20030;-78
2024/03/19 02:02:34;;;;;;;16.15;8.93;;;;;;;7.94;100.00;101392.59;5022900;28;20037;-77
2024/03/19 02:05:00;;;;;;;18.73;8.10;;;;;;;7.93;100.00;101387.53;5021430;28;20104;-76
2024/03/19 02:07:26;;;;;;;19.90;9.60;;;;;;;7.92;100.00;101391.91;5020850;28;20033;-76
2024/03/19 02:09:53;;;;;;;18.73;9.25;;;;;;;7.91;100.00;101389.44;5026695;28;20041;-77
2024/03/19 02:12:20;;;;;;;18.15;9.00;;;;;;;7.90;100.00;101396.38;5023455;28;20684;-77
2024/03/19 02:14:46;;;;;;;15.85;8.55;;;;;;;7.87;100.00;101391.44;5027891;28;20038;-77
2024/03/19 02:17:11;;;;;;;20.83;9.77;;;;;;;7.85;100.00;101388.16;5024194;28;20087;-76
2024/03/19 02:19:38;;;;;;;16.90;9.45;;;;;;;7.85;100.00;101387.34;5022798;28;20400;-76
2024/03/19 02:22:05;;;;;;;20.13;8.27;;;;;;;7.84;100.00;101389.13;5024520;28;20049;-77
2024/03/19 02:24:30;;;;;;;16.75;8.45;;;;;;;7.83;100.00;101392.63;5029713;28;20032;-77
2024/03/19 02:26:56;;;;;;;14.93;8.13;;;;;;;7.82;100.00;101391.00;5027068;28;20400;-77
2024/03/19 02:29:22;;;;;;;15.32;7.57;;;;;;;7.79;100.00;101381.72;5025791;28;20037;-77
2024/03/19 02:31:47;;;;;;;15.77;7.88;;;;;;;7.79;100.00;101381.72;5023154;28;20040;-77
2024/03/19 02:34:12;;;;;;;13.93;8.15;;;;;;;7.75;100.00;101392.44;5055363;28;20025;-77
2024/03/19 02:36:38;;;;;;;18.05;8.30;;;;;;;7.69;100.00;101374.88;5028445;28;20040;-76
2024/03/19 02:39:03;;;;;;;16.05;8.90;;;;;;;7.66;100.00;101382.84;5026100;28;20554;-78
2024/03/19 02:41:29;;;;;;;15.75;9.00;;;;;;;7.64;100.00;101380.38;5023097;28;20384;-77
2024/03/19 02:43:54;;;;;;;16.50;8.23;;;;;;;7.64;100.00;101372.63;5025478;28;20044;-77
2024/03/19 02:46:20;;;;;;;23.92;9.85;;;;;;;7.65;100.00;101376.88;5027566;28;20033;-77
2024/03/19 02:48:45;;;;;;;18.65;8.82;;;;;;;7.67;100.00;101381.91;5023853;28;20056;-77
2024/03/19 02:51:10;;;;;;;18.15;9.35;;;;;;;7.70;100.00;101384.22;5023951;28;20048;-77
2024/03/19 02:53:36;;;;;;;18.55;9.45;;;;;;;7.71;100.00;101386.69;5025050;28;20044;-77
2024/03/19 02:56:01;;;;;;;21.52;8.98;;;;;;;7.70;100.00;101384.22;5026562;28;20400;-77
2024/03/19 02:58:27;;;;;;;17.30;9.07;;;;;;;7.68;100.00;101391.28;5027767;28;20037;-77
2024/03/19 03:00:52;;;;;;;18.65;9.23;;;;;;;7.67;100.00;101394.81;5030517;28;20041;-77
2024/03/19 03:03:19;;;;;;;16.65;9.23;;;;;;;7.66;100.00;101393.16;5026101;28;20037;-77
2024/03/19 03:05:45;;;;;;;21.67;9.25;;;;;;;7.66;100.00;101395.75;5025047;28;20053;-77
2024/03/19 03:08:10;;;;;;;20.90;8.70;;;;;;;7.68;100.00;101389.50;5027925;28;20091;-76
2024/03/19 03:10:36;;;;;;;18.73;9.43;;;;;;;7.69;100.00;101401.50;5029202;28;20551;-77
2024/03/19 03:13:01;;;;;;;16.42;8.75;;;;;;;7.71;100.00;101393.63;5027227;28;20037;-77
2024/03/19 03:15:28;;;;;;;14.75;8.27;;;;;;;7.73;100.00;101394.31;5027298;28;20063;-76
2024/03/19 03:17:54;;;;;;;16.85;9.38;;;;;;;7.72;100.00;101398.69;5026377;28;20061;-77
2024/03/19 03:20:20;;;;;;;16.67;9.45;;;;;;;7.69;100.00;101391.16;5026124;28;20033;-75
2024/03/19 03:22:46;;;;;;;17.75;8.77;;;;;;;7.66;100.00;101393.97;5026049;28;20103;-77
2024/03/19 03:25:11;;;;;;;24.83;8.77;;;;;;;7.66;100.00;101406.06;5027724;28;20038;-77
2024/03/19 03:27:40;;;;;;;18.15;8.48;;;;;;;7.64;100.00;101400.22;5028996;28;20041;-77
2024/03/19 03:30:13;;;;;;;16.60;8.40;;;;;;;7.64;100.00;101403.63;5026545;28;20044;-76
2024/03/19 03:32:39;;;;;;;;;;;;;;;7.63;100.00;101404.56;5027783;28;20056;-77
2024/03/19 03:35:05;;;;;;;18.17;8.27;;;;;;;7.63;100.00;101411.47;5011652;28;19956;-77
2024/03/19 03:37:31;;;;;;;16.00;8.75;;;;;;;7.63;100.00;101406.31;5024170;28;20408;-76
2024/03/19 03:39:57;;;;;;;19.33;9.02;;;;;;;7.65;100.00;101402.69;5027413;28;20017;-76
2024/03/19 03:42:26;;;;;;;18.25;8.80;;;;;;;7.67;100.00;101408.53;5025526;28;20056;-76
2024/03/19 03:44:51;;;;;;;17.63;9.05;;;;;;;7.65;100.00;101404.41;5029439;28;20033;-76
2024/03/19 03:47:17;;;;;;;26.88;9.50;;;;;;;7.63;100.00;101403.72;5029476;28;20049;-77
2024/03/19 03:49:43;;;;;;;15.82;8.50;;;;;;;7.60;100.00;101407.38;5027382;28;20029;-76
2024/03/19 03:52:08;;;;;;;16.35;8.57;;;;;;;7.60;100.00;101407.38;5028782;28;20037;-77
2024/03/19 03:54:34;;;;;;;17.58;9.25;;;;;;;7.58;100.00;101415.25;5026767;28;20125;-76
2024/03/19 03:56:59;;;;;;;20.45;9.95;;;;;;;7.59;100.00;101416.06;5027143;28;20424;-77
2024/03/19 03:59:27;;;;;;;20.02;9.20;;;;;;;7.58;100.00;101420.41;5028788;28;20017;-77
2024/03/19 04:01:52;;;;;;;16.70;8.43;;;;;;;7.57;100.00;101421.38;5025710;28;20033;-76
2024/03/19 04:04:18;;;;;;;19.98;8.93;;;;;;;7.57;100.00;101430.84;5027016;28;20115;-76
2024/03/19 04:06:43;;;;;;;14.80;8.65;;;;;;;7.56;100.00;101431.81;5012141;28;20041;-76
2024/03/19 04:09:10;;;;;;;18.00;9.68;;;;;;;7.54;100.00;101431.91;5023631;28;20037;-77
2024/03/19 04:11:35;;;;;;;16.88;9.23;;;;;;;7.50;100.00;101427.94;5030831;28;20064;-77
2024/03/19 04:14:00;;;;;;;20.15;9.18;;;;;;;7.47;100.00;101430.75;5026747;28;20030;-76
2024/03/19 04:16:26;;;;;;;21.40;9.25;;;;;;;7.46;100.00;101428.28;5027360;28;20025;-76
2024/03/19 04:18:52;;;;;;;18.77;8.57;;;;;;;7.44;100.00;101433.59;5024723;28;20496;-77
2024/03/19 04:21:17;;;;;;;22.05;8.70;;;;;;;7.39;100.00;101441.69;5021975;28;20042;-76
2024/03/19 04:23:43;;;;;;;17.90;9.10;;;;;;;7.35;100.00;101442.03;5026348;28;20041;-76
2024/03/19 04:26:08;;;;;;;17.30;9.25;;;;;;;7.32;100.00;101447.44;5028226;28;20040;-77
2024/03/19 04:28:33;;;;;;;15.57;9.18;;;;;;;7.29;100.00;101442.50;5022105;28;20041;-77
2024/03/19 04:30:59;;;;;;;15.82;7.82;;;;;;;7.25;100.00;101454.00;5028035;28;20052;-77
2024/03/19 04:33:24;;;;;;;21.20;8.55;;;;;;;7.21;100.00;101448.25;5026200;28;20428;-76
2024/03/19 04:35:50;;;;;;;18.52;10.25;;;;;;;7.16;100.00;101443.47;5018474;28;20042;-77
2024/03/19 04:38:15;;;;;;;18.23;8.40;;;;;;;7.12;100.00;101446.38;5026759;28;20033;-77
2024/03/19 04:40:41;;;;;;;21.73;9.60;;;;;;;7.08;100.00;101450.94;5025150;28;20037;-77
2024/03/19 04:43:07;;;;;;;16.30;7.97;;;;;;;7.03;100.00;101453.06;5025478;28;20037;-77
2024/03/19 04:45:32;;;;;;;19.30;9.45;;;;;;;7.00;100.00;101450.72;5024055;28;20022;-77
2024/03/19 04:47:58;;;;;;;20.42;9.32;;;;;;;6.98;100.00;101458.56;5006249;28;20029;-76
2024/03/19 04:50:23;;;;;;;13.77;7.93;;;;;;;6.96;100.00;101455.28;5026597;28;20712;-77
2024/03/19 04:52:50;;;;;;;19.25;8.82;;;;;;;6.96;100.00;101459.63;5027308;28;20084;-77
2024/03/19 04:55:15;;;;;;;18.60;8.80;;;;;;;6.93;100.00;101460.69;5023424;28;20105;-77
2024/03/19 04:57:41;;;;;;;15.43;9.07;;;;;;;6.90;100.00;101460.91;5025455;28;20045;-77
2024/03/19 05:00:18;;;;;;;15.88;8.73;;;;;;;6.86;100.00;101464.66;5024342;28;20048;-76
2024/03/19 05:02:45;;;;;;;13.98;8.27;;;;;;;6.85;100.00;101465.59;5023461;28;20037;-76
2024/03/19 05:05:10;;;;;;;15.88;9.27;;;;;;;6.81;100.00;101475.31;5024955;28;20688;-77
2024/03/19 05:07:35;;;;;;;17.70;9.05;;;;;;;6.80;100.00;101465.94;5025483;28;20100;-76
2024/03/19 05:10:01;;;;;;;23.20;9.02;;;;;;;6.79;100.00;101469.44;5023990;28;20148;-76
2024/03/19 05:12:26;;;;;;;14.20;8.25;;;;;;;6.80;100.00;101476.25;5056886;28;20042;-76
2024/03/19 05:14:52;;;;;;;18.27;8.82;;;;;;;6.82;100.00;101474.38;5011858;28;20053;-77
2024/03/19 05:17:17;;;;;;;20.65;8.75;;;;;;;6.83;100.00;101477.78;5008786;28;20037;-77
2024/03/19 05:19:43;;;;;;;18.00;9.88;;;;;;;6.80;100.00;101470.28;5024548;28;20033;-76
2024/03/19 05:22:09;;;;;;;18.67;9.60;;;;;;;6.77;100.00;101466.16;5029788;28;20427;-77
2024/03/19 05:24:35;;;;;;;16.67;9.00;;;;;;;6.76;100.00;101469.69;5025853;28;20029;-76
2024/03/19 05:27:02;;;;;;;19.35;8.80;;;;;;;6.72;100.00;101468.25;5023969;28;20520;-77
2024/03/19 05:29:27;;;;;;;18.83;10.02;;;;;;;6.72;100.00;101470.84;5021141;28;20484;-76
2024/03/19 05:31:54;;;;;;;17.40;8.00;;;;;;;6.69;100.00;101468.50;5026157;28;20048;-77
2024/03/19 05:34:19;;;;;;;21.83;9.48;;;;;;;6.67;100.00;101470.38;5021022;28;20032;-77
2024/03/19 05:36:46;;;;;;;16.98;8.77;;;;;;;6.66;100.00;101473.88;5023865;28;20377;-77
2024/03/19 05:39:11;;;;;;;19.30;8.52;;;;;;;6.64;100.00;101478.31;5028093;28;20026;-76
2024/03/19 05:41:37;;;;;;;18.13;8.95;;;;;;;6.65;100.00;101476.56;5022180;28;20072;-76
2024/03/19 05:44:03;;;;;;;21.52;9.85;;;;;;;6.61;100.00;101481.97;5025488;28;20461;-76
2024/03/19 05:46:29;;;;;;;18.85;9.40;;;;;;;6.62;100.00;101486.16;5024801;28;20053;-77
2024/03/19 05:48:54;;;;;;;20.20;9.32;;;;;;;6.62;100.00;101482.78;5021938;28;20492;-77
2024/03/19 05:51:20;;;;;;;17.40;9.40;;;;;;;6.64;100.00;101488.63;5057661;28;20029;-76
2024/03/19 05:53:46;;;;;;;16.77;8.80;;;;;;;6.66;100.00;101483.38;5026647;28;20504;-76
2024/03/19 05:56:12;;;;;;;18.15;9.52;;;;;;;6.67;100.00;101487.56;5025942;28;20440;-77
2024/03/19 05:58:37;;;;;;;18.55;9.32;;;;;;;6.69;100.00;101488.31;5031804;28;21203;-77
2024/03/19 06:01:03;;;;;;;20.75;9.05;;;;;;;6.71;100.00;101492.41;5028259;28;20087;-77
2024/03/19 06:03:31;;;;;;;21.10;10.20;;;;;;;6.75;100.00;101495.59;5026396;28;20041;-76
2024/03/19 06:06:03;;;;;;;16.13;8.93;;;;;;;6.76;100.00;101499.78;5026270;28;20079;-77
2024/03/19 06:08:29;;;;;;;24.02;9.75;;;;;;;6.79;100.00;101502.16;5008084;28;20030;-76
2024/03/19 06:10:55;;;;;;;20.83;9.25;;;;;;;6.79;100.00;101509.88;5026888;28;20029;-76
2024/03/19 06:13:21;;;;;;;19.70;8.88;;;;;;;6.80;100.00;101507.19;5023762;28;20147;-77
2024/03/19 06:15:47;;;;;;;18.23;10.07;;;;;;;6.85;100.00;101506.03;5024459;28;20068;-76
2024/03/19 06:18:12;;;;;;;21.23;10.25;;;;;;;6.89;100.00;101515.16;5023367;28;20202;-77
2024/03/19 06:20:38;;;;;;;24.23;10.48;;;;;;;6.92;100.00;101509.78;5020328;28;20100;-77
2024/03/19 06:23:03;;;;;;;25.73;10.88;;;;;;;6.95;100.00;101507.81;5025040;28;20045;-76
2024/03/19 06:25:29;;;;;;;22.83;10.75;;;;;;;7.14;100.00;101512.41;5056459;28;20026;-76
2024/03/19 06:27:55;;;;;;;22.08;11.95;;;;;;;7.28;100.00;101520.84;5027182;28;20034;-75
2024/03/19 06:30:20;;;;;;;28.92;12.07;;;;;;;7.23;100.00;101516.03;5028961;28;20415;-77
2024/03/19 06:32:46;;;;;;;35.47;11.65;;;;;;;7.21;100.00;101523.06;5042082;28;20037;-77
2024/03/19 06:35:14;;;;;;;30.52;12.35;;;;;;;7.28;100.00;101524.25;5004860;28;20451;-77
2024/03/19 06:37:41;;;;;;;26.77;11.82;;;;;;;7.30;100.00;101524.13;5044673;28;20033;-77
2024/03/19 06:40:08;;;;;;;28.35;12.05;;;;;;;7.33;100.00;101529.88;5029931;28;20033;-76
2024/03/19 06:42:35;;;;;;;27.35;12.35;;;;;;;7.40;100.00;101535.38;5027466;28;20045;-77
2024/03/19 06:45:01;;;;;;;30.15;11.65;;;;;;;7.50;100.00;101528.59;5056854;28;20041;-76
2024/03/19 06:47:27;;;;;;;31.15;12.10;;;;;;;7.45;100.00;101530.69;5013336;28;20373;-76
2024/03/19 06:49:52;;;;;;;26.17;12.13;;;;;;;7.49;100.00;101532.09;5029776;28;20041;-77
2024/03/19 06:52:18;;;;;;;24.25;11.50;;;;;;;7.49;100.00;101537.25;5042171;28;20057;-77
2024/03/19 06:54:44;;;;;;;24.02;11.40;;;;;;;7.66;100.00;101535.97;5029245;28;20488;-76
2024/03/19 06:57:09;;;;;;;32.10;10.90;;;;;;;7.79;100.00;101530.66;5025103;28;20037;-76
2024/03/19 06:59:35;;;;;;;27.05;10.00;;;;;;;7.75;100.00;101535.25;5025153;28;20126;-77
2024/03/19 07:02:04;;;;;;;30.52;10.48;;;;;;;7.76;100.00;101530.91;5024510;28;20436;-76
2024/03/19 07:04:30;;;;;;;25.42;10.40;;;;;;;7.84;100.00;101535.50;5027963;28;20084;-78
2024/03/19 07:06:56;;;;;;;30.80;10.98;;;;;;;7.96;100.00;101534.50;5023604;28;20029;-77
2024/03/19 07:09:24;;;;;;;29.85;9.23;;;;;;;7.94;100.00;101529.47;5040978;28;20589;-77
2024/03/19 07:11:50;;;;;;;25.70;10.52;;;;;;;7.91;100.00;101545.22;5027291;28;20032;-76
2024/03/19 07:14:15;;;;;;;24.98;9.95;;;;;;;7.89;100.00;101544.53;5028086;28;20034;-77
2024/03/19 07:16:42;;;;;;;29.58;11.95;;;;;;;8.01;100.00;101541.91;5027414;28;20030;-76
2024/03/19 07:19:08;;;;;;;24.38;10.63;;;;;;;8.03;100.00;101550.34;5027685;28;20410;-76
2024/03/19 07:21:34;;;;;;;30.83;9.98;;;;;;;8.14;100.00;101550.34;5026190;28;20037;-77
2024/03/19 07:24:00;;;;;;;24.42;10.90;;;;;;;8.15;100.00;101552.75;5025110;28;20030;-77
2024/03/19 07:26:25;;;;;;;28.92;9.45;;;;;;;8.18;100.00;101546.56;5026667;28;20037;-76
2024/03/19 07:28:51;;;;;;;26.30;9.25;;;;;;;8.22;100.00;101554.88;5025848;28;20508;-76
2024/03/19 07:31:18;;;;;;;24.48;9.75;;;;;;;8.15;100.00;101557.13;5028205;28;20487;-75
2024/03/19 07:33:43;;;;;;;35.85;10.00;;;;;;;8.31;100.00;101551.56;5023390;28;20548;-75
2024/03/19 07:36:10;;;;;;;25.20;9.55;;;;;;;8.35;100.00;101553.78;5022355;28;20092;-75
2024/03/19 07:38:37;;;;;;;27.30;9.40;;;;;;;8.30;100.00;101568.81;5024287;28;20033;-75
2024/03/19 07:41:02;;;;;;;21.10;7.95;;;;;;;8.38;100.00;101565.63;5029914;28;20041;-75
2024/03/19 07:43:29;;;;;;;24.33;11.15;;;;;;;8.45;100.00;101553.06;5012660;28;20073;-76
2024/03/19 07:45:55;;;;;;;33.13;12.88;;;;;;;8.36;100.00;101557.16;5029361;28;20025;-75
2024/03/19 07:48:21;;;;;;;34.10;12.02;;;;;;;8.51;100.00;101557.75;5029180;28;20029;-76
2024/03/19 07:50:46;;;;;;;24.15;10.73;;;;;;;8.39;100.00;101567.28;5010596;28;20033;-76
2024/03/19 07:53:12;;;;;;;22.52;9.75;;;;;;;8.37;100.00;101562.22;5021956;28;20554;-75
2024/03/19 07:55:37;;;;;;;23.33;9.13;;;;;;;8.46;100.00;101557.31;5025328;28;20033;-76
2024/03/19 07:58:03;;;;;;;22.85;9.45;;;;;;;8.56;100.00;101563.38;5024892;28;20046;-75
2024/03/19 08:00:28;;;;;;;21.95;8.05;;;;;;;8.48;100.00;101565.75;5025429;28;20030;-76
2024/03/19 08:02:54;;;;;;;23.35;8.38;;;;;;;8.48;100.00;101573.50;5025064;28;20436;-75
2024/03/19 08:05:19;;;;;;;21.92;8.75;;;;;;;8.43;100.00;101576.44;5060364;28;20026;-75
2024/03/19 08:07:45;;;;;;;19.33;8.05;;;;;;;8.48;100.00;101576.09;5026726;28;20396;-75
2024/03/19 08:10:10;;;;;;;22.60;9.00;;;;;;;8.51;100.00;101583.59;5028551;28;20527;-76
2024/03/19 08:12:36;;;;;;;15.23;7.82;;;;;;;8.54;100.00;101581.56;5024827;28;20152;-74
2024/03/19 08:15:03;;;;;;;23.55;8.85;;;;;;;8.66;100.00;101578.94;5025062;28;20029;-74
2024/03/19 08:17:30;;;;;;;25.15;9.65;;;;;;;8.73;100.00;101569.75;5025145;28;20539;-74
2024/03/19 08:19:56;;;;;;;27.05;8.40;;;;;;;8.85;100.00;101566.16;5025496;28;20112;-75
2024/03/19 08:22:21;;;;;;;26.30;8.57;;;;;;;8.90;100.00;101565.78;5023449;28;20041;-74
2024/03/19 08:24:48;;;;;;;26.55;9.55;;;;;;;8.93;100.00;101558.59;5028356;28;20083;-75
2024/03/19 08:27:14;;;;;;;23.50;8.68;;;;;;;8.94;100.00;101556.81;5025761;28;20537;-75
2024/03/19 08:29:39;;;;;;;25.77;9.57;;;;;;;9.16;100.00;101548.91;5027122;28;20033;-74
2024/03/19 08:32:05;;;;;;;22.25;8.57;;;;;;;9.11;100.00;101542.50;5027396;28;20045;-75
2024/03/19 08:34:30;;;;;;;24.13;8.68;;;;;;;9.23;100.00;101551.81;5027166;28;20041;-74
2024/03/19 08:36:56;;;;;;;24.27;9.32;;;;;;;9.26;100.00;101555.91;5057549;28;20034;-75
2024/03/19 08:39:24;;;;;;;22.17;8.93;;;;;;;9.28;100.00;101554.81;5027864;28;20044;-75
2024/03/19 08:41:50;;;;;;;18.48;9.15;;;;;;;9.44;100.00;101554.38;5041210;28;20075;-74
2024/03/19 08:44:15;;;;;;;21.52;9.63;;;;;;;9.52;100.00;101561.47;5023168;28;20075;-74
2024/03/19 08:46:40;;;;;;;22.33;8.77;;;;;;;9.59;100.00;101565.19;5025480;28;20476;-75
2024/03/19 08:49:06;;;;;;;21.83;9.18;;;;;;;9.69;100.00;101558.25;5024966;28;20061;-75
2024/03/19 08:51:31;;;;;;;21.30;8.02;;;;;;;9.73;100.00;101556.22;5021413;28;20029;-75
2024/03/19 08:53:58;;;;;;;17.10;8.52;;;;;;;9.83;100.00;101556.25;5025520;28;20037;-75
2024/03/19 08:56:23;;;;;;;22.52;8.77;;;;;;;9.92;100.00;101564.03;5028777;28;20034;-75
2024/03/19 08:58:48;;;;;;;27.15;8.85;;;;;;;10.05;100.00;101568.16;5020747;28;20117;-75
2024/03/19 09:01:14;;;;;;;22.20;7.85;;;;;;;10.24;100.00;101572.56;5024854;28;20033;-75
2024/03/19 09:03:40;;;;;;;18.15;7.97;;;;;;;10.42;100.00;101576.16;5012688;28;20033;-75
2024/03/19 09:06:06;;;;;;;20.08;7.95;;;;;;;10.48;100.00;101570.41;5024651;28;20087;-75
2024/03/19 09:08:31;;;;;;;26.17;7.95;;;;;;;10.58;100.00;101567.00;5054192;28;20087;-74
2024/03/19 09:10:57;;;;;;;19.52;8.63;;;;;;;10.65;100.00;101568.91;5055714;28;20496;-75
2024/03/19 09:13:22;;;;;;;27.05;8.05;;;;;;;10.75;100.00;101568.09;5012250;28;20033;-75
2024/03/19 09:15:48;;;;;;;22.08;10.07;;;;;;;10.90;100.00;101569.28;5052616;28;20094;-74
2024/03/19 09:18:14;;;;;;;31.55;9.90;;;;;;;10.90;100.00;101567.50;5025439;28;20033;-75
2024/03/19 09:20:40;;;;;;;22.73;7.82;;;;;;;11.01;100.00;101571.72;5025348;28;20025;-75
2024/03/19 09:23:05;;;;;;;22.63;7.82;;;;;;;11.18;100.00;101569.38;5025351;28;20037;-75
2024/03/19 09:25:32;;;;;;;16.25;7.22;;;;;;;11.31;100.00;101567.28;5026953;28;20445;-75
2024/03/19 09:27:58;;;;;;;16.08;7.05;;;;;;;11.33;100.00;101569.75;5052604;28;20041;-75
2024/03/19 09:30:23;;;;;;;23.58;7.05;;;;;;;11.43;100.00;101571.34;5025699;28;20037;-75
2024/03/19 09:32:49;;;;;;;28.95;7.82;;;;;;;11.52;100.00;101571.44;5008652;28;20048;-75
2024/03/19 09:35:15;;;;;;;19.70;6.80;;;;;;;11.60;100.00;101572.38;5025132;28;20064;-74
2024/03/19 09:37:44;;;;;;;19.15;6.72;;;;;;;11.74;100.00;101568.47;5020030;28;20611;-74
2024/03/19 09:40:10;;;;;;;22.45;7.10;;;;;;;11.85;100.00;101563.06;5025516;28;20488;-75
2024/03/19 09:42:37;;;;;;;21.30;6.88;;;;;;;11.98;100.00;101561.91;5024048;28;21892;-74
2024/03/19 09:45:05;;;;;;;25.27;7.10;;;;;;;12.01;100.00;101564.25;5020752;28;20095;-75
2024/03/19 09:47:31;;;;;;;20.98;6.60;;;;;;;11.98;100.00;101562.75;5025429;28;20408;-74
2024/03/19 09:49:59;;;;;;;20.27;7.25;;;;;;;12.10;100.00;101563.38;5021954;28;20025;-74
2024/03/19 09:52:28;;;;;;;19.27;6.47;;;;;;;12.31;100.00;101559.66;5024694;28;20033;-74
2024/03/19 09:54:56;;;;;;;20.63;6.35;;;;;;;12.18;100.00;101560.03;5024783;28;20031;-75
2024/03/19 09:57:22;;;;;;;17.92;7.60;;;;;;;12.24;100.00;101556.81;5024551;28;20083;-75
2024/03/19 09:59:48;;;;;;;19.40;8.48;;;;;;;12.12;100.00;101561.44;5040579;28;20037;-74
2024/03/19 10:02:17;;;;;;;16.00;7.53;;;;;;;12.10;100.00;101559.94;5024849;28;20037;-75
2024/03/19 10:04:47;;;;;;;19.95;6.75;;;;;;;12.38;100.00;101552.91;5025598;28;20507;-75
2024/03/19 10:07:16;;;;;;;23.48;7.80;;;;;;;12.41;98.99;101553.44;5024928;28;20121;-74
2024/03/19 10:09:46;;;;;;;18.23;6.68;;;;;;;12.48;98.63;101547.63;5025492;28;20500;-74
2024/03/19 10:12:12;;;;;;;25.95;7.68;;;;;;;12.45;99.22;101549.56;5023287;28;20042;-74
2024/03/19 10:14:38;;;;;;;19.83;7.88;;;;;;;12.61;99.39;101553.25;5024421;28;20040;-75
2024/03/19 10:17:04;;;;;;;20.63;7.65;;;;;;;12.66;98.35;101556.22;5020576;28;20045;-75
2024/03/19 10:19:30;;;;;;;18.05;6.38;;;;;;;12.92;95.83;101553.63;5017921;28;20123;-75
2024/03/19 10:21:56;;;;;;;20.63;7.45;;;;;;;13.15;95.11;101555.72;5025620;28;20121;-75
2024/03/19 10:24:21;;;;;;;19.85;6.82;;;;;;;13.28;91.49;101540.50;5022651;28;20612;-75
2024/03/19 10:26:48;;;;;;;17.27;7.15;;;;;;;13.45;92.69;101538.81;5056469;28;20022;-75
2024/03/19 10:29:15;;;;;;;15.35;5.35;;;;;;;13.53;88.92;101544.03;5024689;28;20091;-75
2024/03/19 10:31:46;;;;;;;15.48;6.13;;;;;;;13.69;90.83;101538.06;5022976;28;20037;-75
2024/03/19 10:34:25;;;;;;;16.10;6.22;;;;;;;13.74;88.82;101537.59;5041633;28;20045;-75
2024/03/19 10:36:53;;;;;;;14.02;5.65;;;;;;;13.70;88.40;101542.31;5022032;28;20038;-74
2024/03/19 10:39:22;;;;;;;16.42;5.40;;;;;;;13.81;87.09;101536.78;5026591;28;20501;-74
2024/03/19 10:41:52;;;;;;;14.52;5.47;;;;;;;13.80;84.89;101534.34;5039503;28;20029;-75
2024/03/19 10:44:19;;;;;;;15.18;5.03;;;;;;;13.87;84.64;101537.13;5022298;28;20034;-75
2024/03/19 10:46:46;;;;;;;14.77;5.07;;;;;;;14.02;85.01;101532.94;5023195;28;20044;-74
2024/03/19 10:49:21;;;;;;;13.95;4.82;;;;;;;14.19;85.45;101526.75;5024938;28;20033;-75
2024/03/19 10:51:51;;;;;;;22.60;4.93;;;;;;;14.42;82.06;101528.72;5021718;28;20492;-75
2024/03/19 10:54:19;;;;;;;16.02;4.18;;;;;;;14.56;77.13;101517.63;5055139;28;20060;-75
2024/03/19 10:56:46;;;;;;;16.20;4.15;;;;;;;14.63;79.43;101524.81;5020823;28;20029;-74
2024/03/19 10:59:13;;;;;;;18.13;4.47;;;;;;;14.71;77.77;101530.84;5026197;28;20083;-75
2024/03/19 11:01:45;;;;;;;14.18;4.03;;;;;;;14.84;77.80;101521.69;5023777;28;20778;-74
2024/03/19 11:04:14;;;;;;;12.40;4.13;;;;;;;14.97;76.02;101517.59;5026053;28;20042;-74
2024/03/19 11:06:40;;;;;;;18.33;4.05;;;;;;;15.05;76.68;101524.59;5022721;28;20492;-74
2024/03/19 11:09:21;;;;;;;13.75;4.20;;;;;;;15.08;75.37;101523.41;5020848;28;20076;-75